sensor_id;sensor_type;location;lat;lon;timestamp;pressure;altitude;pressure_sealevel;temperature;humidity
5777;BME280;2914;42.668;23.346;2022-09-03T00:00:00;94488.19;;;18.48;100.00
5777;BME280;2914;42.668;23.346;2022-09-03T00:05:24;94486.25;;;18.63;100.00
5777;BME280;2914;42.668;23.346;2022-09-03T00:07:59;94498.08;;;18.54;100.00
5777;BME280;2914;42.668;23.346;2022-09-03T00:10:30;94497.20;;;18.58;100.00
5777;BME280;2914;42.668;23.346;2022-09-03T00:13:01;94499.48;;;18.50;100.00
5777;BME280;2914;42.668;23.346;2022-09-03T00:15:33;94501.95;;;18.52;100.00
5777;BME280;2914;42.668;23.346;2022-09-03T00:18:05;94496.75;;;18.43;100.00
5777;BME280;2914;42.668;23.346;2022-09-03T00:20:38;94490.98;;;18.40;100.00
5777;BME280;2914;42.668;23.346;2022-09-03T00:23:09;94495.00;;;18.40;100.00
5777;BME280;2914;42.668;23.346;2022-09-03T00:25:41;94493.47;;;18.41;100.00
5777;BME280;2914;42.668;23.346;2022-09-03T00:28:14;94501.15;;;18.40;100.00
5777;BME280;2914;42.668;23.346;2022-09-03T00:30:49;94493.66;;;18.29;100.00
5777;BME280;2914;42.668;23.346;2022-09-03T00:33:21;94494.86;;;18.48;100.00
5777;BME280;2914;42.668;23.346;2022-09-03T00:36:01;94490.98;;;18.51;100.00
5777;BME280;2914;42.668;23.346;2022-09-03T00:38:23;94484.94;;;18.42;100.00
5777;BME280;2914;42.668;23.346;2022-09-03T00:41:05;94486.47;;;18.40;100.00
5777;BME280;2914;42.668;23.346;2022-09-03T00:43:43;94487.61;;;18.31;100.00
5777;BME280;2914;42.668;23.346;2022-09-03T00:46:18;94484.31;;;18.29;100.00
5777;BME280;2914;42.668;23.346;2022-09-03T00:48:59;94491.19;;;18.27;100.00
5777;BME280;2914;42.668;23.346;2022-09-03T00:51:32;94486.73;;;18.24;100.00
5777;BME280;2914;42.668;23.346;2022-09-03T00:54:04;94494.41;;;18.23;100.00
5777;BME280;2914;42.668;23.346;2022-09-03T00:56:37;94491.61;;;18.31;100.00
5777;BME280;2914;42.668;23.346;2022-09-03T00:59:23;94500.47;;;18.31;100.00
5777;BME280;2914;42.668;23.346;2022-09-03T01:01:59;94493.92;;;18.23;100.00
5777;BME280;2914;42.668;23.346;2022-09-03T01:04:33;94489.98;;;18.30;100.00
5777;BME280;2914;42.668;23.346;2022-09-03T01:07:07;94500.66;;;18.30;100.00
5777;BME280;2914;42.668;23.346;2022-09-03T01:09:45;94484.45;;;18.31;100.00
5777;BME280;2914;42.668;23.346;2022-09-03T01:12:20;94494.41;;;18.23;100.00
5777;BME280;2914;42.668;23.346;2022-09-03T01:14:56;94492.65;;;18.19;100.00
5777;BME280;2914;42.668;23.346;2022-09-03T01:17:31;94488.58;;;18.23;100.00
5777;BME280;2914;42.668;23.346;2022-09-03T01:20:09;94487.73;;;18.23;100.00
5777;BME280;2914;42.668;23.346;2022-09-03T01:25:52;94491.73;;;18.23;100.00
5777;BME280;2914;42.668;23.346;2022-09-03T01:28:31;94497.66;;;18.29;100.00
5777;BME280;2914;42.668;23.346;2022-09-03T01:31:06;94489.20;;;18.14;100.00
5777;BME280;2914;42.668;23.346;2022-09-03T01:33:40;94496.64;;;18.08;100.00
5777;BME280;2914;42.668;23.346;2022-09-03T01:36:13;94509.38;;;17.91;100.00
5777;BME280;2914;42.668;23.346;2022-09-03T01:38:45;94509.92;;;18.02;100.00
5777;BME280;2914;42.668;23.346;2022-09-03T01:41:19;94509.14;;;18.08;100.00
5777;BME280;2914;42.668;23.346;2022-09-03T01:44:10;94514.17;;;17.96;100.00
5777;BME280;2914;42.668;23.346;2022-09-03T01:46:41;94515.89;;;17.93;100.00
5777;BME280;2914;42.668;23.346;2022-09-03T01:49:16;94519.78;;;17.86;100.00
5777;BME280;2914;42.668;23.346;2022-09-03T01:51:53;94509.73;;;17.88;100.00
5777;BME280;2914;42.668;23.346;2022-09-03T01:54:44;94510.30;;;17.99;100.00
5777;BME280;2914;42.668;23.346;2022-09-03T01:57:29;94505.53;;;18.05;100.00
5777;BME280;2914;42.668;23.346;2022-09-03T02:00:03;94506.66;;;17.95;100.00
5777;BME280;2914;42.668;23.346;2022-09-03T02:02:33;94505.09;;;18.01;100.00
5777;BME280;2914;42.668;23.346;2022-09-03T02:05:06;94505.98;;;18.08;100.00
5777;BME280;2914;42.668;23.346;2022-09-03T02:07:37;94504.12;;;17.98;100.00
5777;BME280;2914;42.668;23.346;2022-09-03T02:10:10;94504.98;;;18.09;100.00
5777;BME280;2914;42.668;23.346;2022-09-03T02:12:40;94507.77;;;18.01;100.00
5777;BME280;2914;42.668;23.346;2022-09-03T02:15:13;94511.58;;;18.03;100.00
5777;BME280;2914;42.668;23.346;2022-09-03T02:17:44;94517.68;;;18.18;100.00
5777;BME280;2914;42.668;23.346;2022-09-03T02:20:19;94521.61;;;18.11;100.00
5777;BME280;2914;42.668;23.346;2022-09-03T02:22:49;94523.77;;;18.12;100.00
5777;BME280;2914;42.668;23.346;2022-09-03T02:25:23;94522.37;;;18.16;100.00
5777;BME280;2914;42.668;23.346;2022-09-03T02:27:53;94527.28;;;18.12;100.00
5777;BME280;2914;42.668;23.346;2022-09-03T02:30:23;94520.93;;;18.13;100.00
5777;BME280;2914;42.668;23.346;2022-09-03T02:32:52;94522.06;;;18.04;100.00
5777;BME280;2914;42.668;23.346;2022-09-03T02:35:21;94522.26;;;17.88;100.00
5777;BME280;2914;42.668;23.346;2022-09-03T02:37:51;94523.13;;;17.84;100.00
5777;BME280;2914;42.668;23.346;2022-09-03T02:40:20;94525.17;;;17.82;100.00
5777;BME280;2914;42.668;23.346;2022-09-03T02:42:50;94520.79;;;17.85;100.00
5777;BME280;2914;42.668;23.346;2022-09-03T02:45:24;94525.23;;;17.93;100.00
5777;BME280;2914;42.668;23.346;2022-09-03T02:47:55;94527.05;;;17.92;100.00
5777;BME280;2914;42.668;23.346;2022-09-03T02:50:25;94526.70;;;17.80;100.00
5777;BME280;2914;42.668;23.346;2022-09-03T02:52:55;94526.64;;;17.85;100.00
5777;BME280;2914;42.668;23.346;2022-09-03T02:55:24;94532.60;;;17.87;100.00
5777;BME280;2914;42.668;23.346;2022-09-03T02:57:54;94523.98;;;17.85;100.00
5777;BME280;2914;42.668;23.346;2022-09-03T03:00:23;94533.53;;;17.79;100.00
5777;BME280;2914;42.668;23.346;2022-09-03T03:02:52;94541.53;;;17.68;100.00
5777;BME280;2914;42.668;23.346;2022-09-03T03:05:25;94539.64;;;17.58;100.00
5777;BME280;2914;42.668;23.346;2022-09-03T03:07:55;94531.07;;;17.62;100.00
5777;BME280;2914;42.668;23.346;2022-09-03T03:10:24;94529.73;;;17.52;100.00
5777;BME280;2914;42.668;23.346;2022-09-03T03:12:54;94538.36;;;17.54;100.00
5777;BME280;2914;42.668;23.346;2022-09-03T03:15:23;94530.64;;;17.59;100.00
5777;BME280;2914;42.668;23.346;2022-09-03T03:17:52;94528.35;;;17.67;100.00
5777;BME280;2914;42.668;23.346;2022-09-03T03:20:23;94531.34;;;17.68;100.00
5777;BME280;2914;42.668;23.346;2022-09-03T03:22:52;94521.85;;;17.80;100.00
5777;BME280;2914;42.668;23.346;2022-09-03T03:25:21;94529.94;;;17.87;100.00
5777;BME280;2914;42.668;23.346;2022-09-03T03:27:50;94526.94;;;18.01;100.00
5777;BME280;2914;42.668;23.346;2022-09-03T03:30:19;94529.28;;;18.00;100.00
5777;BME280;2914;42.668;23.346;2022-09-03T03:32:49;94520.40;;;18.03;100.00
5777;BME280;2914;42.668;23.346;2022-09-03T03:35:18;94525.98;;;17.97;100.00
5777;BME280;2914;42.668;23.346;2022-09-03T03:37:47;94533.41;;;18.02;100.00
5777;BME280;2914;42.668;23.346;2022-09-03T03:40:16;94529.66;;;17.96;100.00
5777;BME280;2914;42.668;23.346;2022-09-03T03:42:46;94535.84;;;17.97;100.00
5777;BME280;2914;42.668;23.346;2022-09-03T03:45:16;94535.83;;;18.08;100.00
5777;BME280;2914;42.668;23.346;2022-09-03T03:47:46;94531.73;;;18.05;100.00
5777;BME280;2914;42.668;23.346;2022-09-03T03:50:15;94535.66;;;17.99;100.00
5777;BME280;2914;42.668;23.346;2022-09-03T03:52:44;94529.17;;;17.97;100.00
5777;BME280;2914;42.668;23.346;2022-09-03T03:55:15;94535.59;;;17.88;100.00
5777;BME280;2914;42.668;23.346;2022-09-03T03:57:44;94529.23;;;17.93;100.00
5777;BME280;2914;42.668;23.346;2022-09-03T04:00:15;94533.94;;;18.02;100.00
5777;BME280;2914;42.668;23.346;2022-09-03T04:02:44;94540.80;;;18.00;100.00
5777;BME280;2914;42.668;23.346;2022-09-03T04:05:14;94542.89;;;17.90;100.00
5777;BME280;2914;42.668;23.346;2022-09-03T04:07:43;94532.20;;;17.94;100.00
5777;BME280;2914;42.668;23.346;2022-09-03T04:10:12;94543.89;;;18.04;100.00
5777;BME280;2914;42.668;23.346;2022-09-03T04:12:42;94536.47;;;17.84;100.00
5777;BME280;2914;42.668;23.346;2022-09-03T04:15:11;94530.27;;;17.88;100.00
5777;BME280;2914;42.668;23.346;2022-09-03T04:17:40;94530.56;;;17.93;100.00
5777;BME280;2914;42.668;23.346;2022-09-03T04:20:10;94534.67;;;17.95;100.00
5777;BME280;2914;42.668;23.346;2022-09-03T04:22:39;94530.69;;;18.06;100.00
5777;BME280;2914;42.668;23.346;2022-09-03T04:25:09;94542.34;;;18.09;100.00
5777;BME280;2914;42.668;23.346;2022-09-03T04:27:39;94537.90;;;18.17;100.00
5777;BME280;2914;42.668;23.346;2022-09-03T04:30:10;94541.05;;;18.16;100.00
5777;BME280;2914;42.668;23.346;2022-09-03T04:32:39;94543.48;;;18.11;100.00
5777;BME280;2914;42.668;23.346;2022-09-03T04:35:33;94546.91;;;18.16;100.00
5777;BME280;2914;42.668;23.346;2022-09-03T04:38:02;94549.00;;;18.20;100.00
5777;BME280;2914;42.668;23.346;2022-09-03T04:40:31;94556.79;;;18.26;100.00
5777;BME280;2914;42.668;23.346;2022-09-03T04:43:00;94562.75;;;18.28;100.00
5777;BME280;2914;42.668;23.346;2022-09-03T04:45:29;94570.95;;;18.26;100.00
5777;BME280;2914;42.668;23.346;2022-09-03T04:48:00;94572.17;;;18.35;100.00
5777;BME280;2914;42.668;23.346;2022-09-03T04:50:30;94569.77;;;18.40;100.00
5777;BME280;2914;42.668;23.346;2022-09-03T04:55:34;94574.37;;;18.31;100.00
5777;BME280;2914;42.668;23.346;2022-09-03T04:58:04;94580.76;;;18.30;100.00
5777;BME280;2914;42.668;23.346;2022-09-03T05:00:36;94588.05;;;18.32;100.00
5777;BME280;2914;42.668;23.346;2022-09-03T05:03:05;94591.30;;;18.27;100.00
5777;BME280;2914;42.668;23.346;2022-09-03T05:05:34;94587.95;;;18.14;100.00
5777;BME280;2914;42.668;23.346;2022-09-03T05:08:04;94588.88;;;18.22;100.00
5777;BME280;2914;42.668;23.346;2022-09-03T05:10:34;94600.35;;;18.11;100.00
5777;BME280;2914;42.668;23.346;2022-09-03T05:13:04;94592.70;;;18.23;100.00
5777;BME280;2914;42.668;23.346;2022-09-03T05:15:33;94593.77;;;18.18;100.00
5777;BME280;2914;42.668;23.346;2022-09-03T05:18:03;94603.41;;;18.08;100.00
5777;BME280;2914;42.668;23.346;2022-09-03T05:20:32;94591.55;;;17.96;100.00
5777;BME280;2914;42.668;23.346;2022-09-03T05:23:02;94592.31;;;18.01;100.00
5777;BME280;2914;42.668;23.346;2022-09-03T05:25:31;94594.20;;;18.11;100.00
5777;BME280;2914;42.668;23.346;2022-09-03T05:28:01;94593.56;;;18.20;100.00
5777;BME280;2914;42.668;23.346;2022-09-03T05:30:30;94591.42;;;18.19;100.00
5777;BME280;2914;42.668;23.346;2022-09-03T05:32:59;94597.05;;;18.20;100.00
5777;BME280;2914;42.668;23.346;2022-09-03T05:35:28;94595.77;;;18.16;100.00
5777;BME280;2914;42.668;23.346;2022-09-03T05:37:57;94601.41;;;18.06;100.00
5777;BME280;2914;42.668;23.346;2022-09-03T05:40:28;94593.33;;;18.00;100.00
5777;BME280;2914;42.668;23.346;2022-09-03T05:42:58;94602.37;;;17.99;100.00
5777;BME280;2914;42.668;23.346;2022-09-03T05:45:27;94603.70;;;17.99;100.00
5777;BME280;2914;42.668;23.346;2022-09-03T05:47:59;94606.61;;;18.04;100.00
5777;BME280;2914;42.668;23.346;2022-09-03T05:50:29;94602.99;;;18.01;100.00
5777;BME280;2914;42.668;23.346;2022-09-03T05:52:59;94606.84;;;17.83;100.00
5777;BME280;2914;42.668;23.346;2022-09-03T05:55:28;94611.13;;;17.88;100.00
5777;BME280;2914;42.668;23.346;2022-09-03T05:57:57;94606.61;;;17.93;100.00
5777;BME280;2914;42.668;23.346;2022-09-03T06:00:26;94606.69;;;17.85;100.00
5777;BME280;2914;42.668;23.346;2022-09-03T06:02:55;94614.45;;;17.90;100.00
5777;BME280;2914;42.668;23.346;2022-09-03T06:05:25;94608.52;;;17.99;100.00
5777;BME280;2914;42.668;23.346;2022-09-03T06:07:54;94612.72;;;17.97;100.00
5777;BME280;2914;42.668;23.346;2022-09-03T06:10:23;94618.57;;;17.97;100.00
5777;BME280;2914;42.668;23.346;2022-09-03T06:12:52;94619.91;;;17.97;100.00
5777;BME280;2914;42.668;23.346;2022-09-03T06:17:59;94628.22;;;18.24;100.00
5777;BME280;2914;42.668;23.346;2022-09-03T06:20:28;94624.92;;;18.22;100.00
5777;BME280;2914;42.668;23.346;2022-09-03T06:22:59;94627.08;;;18.22;100.00
5777;BME280;2914;42.668;23.346;2022-09-03T06:25:28;94623.69;;;18.24;99.95
5777;BME280;2914;42.668;23.346;2022-09-03T06:27:58;94618.19;;;18.26;99.34
5777;BME280;2914;42.668;23.346;2022-09-03T06:30:28;94625.57;;;18.35;99.39
5777;BME280;2914;42.668;23.346;2022-09-03T06:32:57;94623.77;;;18.31;99.11
5777;BME280;2914;42.668;23.346;2022-09-03T06:35:26;94626.96;;;18.30;99.46
5777;BME280;2914;42.668;23.346;2022-09-03T06:37:55;94625.70;;;18.37;98.64
5777;BME280;2914;42.668;23.346;2022-09-03T06:40:25;94635.44;;;18.56;98.27
5777;BME280;2914;42.668;23.346;2022-09-03T06:42:58;94629.30;;;18.66;97.53
5777;BME280;2914;42.668;23.346;2022-09-03T06:48:06;94636.05;;;18.84;97.79
5777;BME280;2914;42.668;23.346;2022-09-03T06:50:35;94635.07;;;18.80;97.73
5777;BME280;2914;42.668;23.346;2022-09-03T06:53:04;94631.39;;;18.81;98.40
5777;BME280;2914;42.668;23.346;2022-09-03T06:55:33;94642.53;;;18.85;97.76
5777;BME280;2914;42.668;23.346;2022-09-03T06:58:04;94644.69;;;18.86;97.95
5777;BME280;2914;42.668;23.346;2022-09-03T07:00:33;94640.84;;;18.88;97.68
5777;BME280;2914;42.668;23.346;2022-09-03T07:03:02;94637.52;;;18.97;97.68
5777;BME280;2914;42.668;23.346;2022-09-03T07:05:32;94641.72;;;19.06;96.94
5777;BME280;2914;42.668;23.346;2022-09-03T07:08:01;94646.41;;;19.15;96.58
5777;BME280;2914;42.668;23.346;2022-09-03T07:10:30;94647.12;;;19.13;96.70
5777;BME280;2914;42.668;23.346;2022-09-03T07:13:01;94643.80;;;19.11;96.89
5777;BME280;2914;42.668;23.346;2022-09-03T07:15:30;94639.42;;;19.14;96.91
5777;BME280;2914;42.668;23.346;2022-09-03T07:17:59;94641.44;;;19.23;96.38
5777;BME280;2914;42.668;23.346;2022-09-03T07:20:28;94652.17;;;19.40;95.55
5777;BME280;2914;42.668;23.346;2022-09-03T07:22:57;94650.81;;;19.51;94.84
5777;BME280;2914;42.668;23.346;2022-09-03T07:25:26;94646.80;;;19.51;94.24
5777;BME280;2914;42.668;23.346;2022-09-03T07:27:55;94650.47;;;19.61;93.79
5777;BME280;2914;42.668;23.346;2022-09-03T07:30:26;94654.80;;;19.62;93.77
5777;BME280;2914;42.668;23.346;2022-09-03T07:32:55;94661.63;;;19.71;94.11
5777;BME280;2914;42.668;23.346;2022-09-03T07:35:27;94664.83;;;19.71;92.58
5777;BME280;2914;42.668;23.346;2022-09-03T07:37:56;94668.84;;;19.71;93.31
5777;BME280;2914;42.668;23.346;2022-09-03T07:40:25;94668.05;;;19.88;93.03
5777;BME280;2914;42.668;23.346;2022-09-03T07:42:57;94671.70;;;19.97;91.95
5777;BME280;2914;42.668;23.346;2022-09-03T07:45:29;94671.95;;;20.03;90.55
5777;BME280;2914;42.668;23.346;2022-09-03T07:47:59;94674.09;;;20.21;90.70
5777;BME280;2914;42.668;23.346;2022-09-03T07:50:28;94672.84;;;20.41;89.70
5777;BME280;2914;42.668;23.346;2022-09-03T07:52:59;94671.12;;;20.68;88.87
5777;BME280;2914;42.668;23.346;2022-09-03T07:55:28;94679.00;;;20.83;87.25
5777;BME280;2914;42.668;23.346;2022-09-03T07:57:57;94685.62;;;20.94;86.47
5777;BME280;2914;42.668;23.346;2022-09-03T08:00:27;94689.02;;;20.98;86.05
5777;BME280;2914;42.668;23.346;2022-09-03T08:02:56;94688.17;;;20.84;85.85
5777;BME280;2914;42.668;23.346;2022-09-03T08:05:27;94682.17;;;20.82;86.35
5777;BME280;2914;42.668;23.346;2022-09-03T08:07:56;94687.66;;;20.67;86.74
5777;BME280;2914;42.668;23.346;2022-09-03T08:10:27;94683.42;;;20.56;86.88
5777;BME280;2914;42.668;23.346;2022-09-03T08:12:58;94692.47;;;20.55;88.38
5777;BME280;2914;42.668;23.346;2022-09-03T08:15:27;94691.57;;;20.58;88.03
5777;BME280;2914;42.668;23.346;2022-09-03T08:17:56;94693.84;;;20.61;87.68
5777;BME280;2914;42.668;23.346;2022-09-03T08:20:26;94693.73;;;20.59;87.68
5777;BME280;2914;42.668;23.346;2022-09-03T08:23:01;94698.88;;;20.60;86.62
5777;BME280;2914;42.668;23.346;2022-09-03T08:25:30;94695.97;;;20.55;87.04
5777;BME280;2914;42.668;23.346;2022-09-03T08:27:59;94692.45;;;20.48;86.96
5777;BME280;2914;42.668;23.346;2022-09-03T08:30:28;94690.58;;;20.42;87.43
5777;BME280;2914;42.668;23.346;2022-09-03T08:35:38;94681.23;;;20.48;87.94
5777;BME280;2914;42.668;23.346;2022-09-03T08:38:08;94684.03;;;20.58;87.38
5777;BME280;2914;42.668;23.346;2022-09-03T08:40:37;94689.47;;;20.71;87.82
5777;BME280;2914;42.668;23.346;2022-09-03T08:43:10;94688.97;;;20.78;86.23
5777;BME280;2914;42.668;23.346;2022-09-03T08:45:40;94687.97;;;20.86;85.96
5777;BME280;2914;42.668;23.346;2022-09-03T08:48:12;94681.39;;;20.95;85.86
5777;BME280;2914;42.668;23.346;2022-09-03T08:50:44;94679.45;;;21.07;84.99
5777;BME280;2914;42.668;23.346;2022-09-03T08:55:57;94676.80;;;21.27;84.85
5777;BME280;2914;42.668;23.346;2022-09-03T08:58:30;94684.31;;;21.27;84.05
5777;BME280;2914;42.668;23.346;2022-09-03T09:01:03;94685.86;;;21.19;84.13
5777;BME280;2914;42.668;23.346;2022-09-03T09:03:48;94690.71;;;21.33;83.54
5777;BME280;2914;42.668;23.346;2022-09-03T09:06:22;94683.48;;;21.40;84.83
5777;BME280;2914;42.668;23.346;2022-09-03T09:09:04;94687.62;;;21.49;83.69
5777;BME280;2914;42.668;23.346;2022-09-03T09:11:40;94688.56;;;21.39;84.59
5777;BME280;2914;42.668;23.346;2022-09-03T09:14:14;94692.35;;;21.21;84.37
5777;BME280;2914;42.668;23.346;2022-09-03T09:16:49;94690.20;;;21.27;83.84
5777;BME280;2914;42.668;23.346;2022-09-03T09:19:24;94693.30;;;21.37;84.46
5777;BME280;2914;42.668;23.346;2022-09-03T09:21:56;94690.86;;;21.56;84.31
5777;BME280;2914;42.668;23.346;2022-09-03T09:24:28;94688.99;;;21.76;83.16
5777;BME280;2914;42.668;23.346;2022-09-03T09:27:00;94689.59;;;21.78;81.30
5777;BME280;2914;42.668;23.346;2022-09-03T09:32:09;94686.90;;;21.92;81.57
5777;BME280;2914;42.668;23.346;2022-09-03T09:34:40;94694.32;;;21.90;81.35
5777;BME280;2914;42.668;23.346;2022-09-03T09:37:12;94690.91;;;22.05;80.53
5777;BME280;2914;42.668;23.346;2022-09-03T09:39:53;94685.80;;;22.19;80.72
5777;BME280;2914;42.668;23.346;2022-09-03T09:42:23;94683.66;;;22.12;80.55
5777;BME280;2914;42.668;23.346;2022-09-03T09:44:53;94684.02;;;22.23;80.85
5777;BME280;2914;42.668;23.346;2022-09-03T09:47:24;94687.45;;;22.34;80.39
5777;BME280;2914;42.668;23.346;2022-09-03T09:49:57;94682.16;;;22.30;79.41
5777;BME280;2914;42.668;23.346;2022-09-03T09:52:28;94687.02;;;22.24;79.70
5777;BME280;2914;42.668;23.346;2022-09-03T09:55:08;94688.05;;;22.23;81.11
5777;BME280;2914;42.668;23.346;2022-09-03T09:57:39;94688.59;;;22.15;80.54
5777;BME280;2914;42.668;23.346;2022-09-03T10:00:11;94696.65;;;22.15;79.35
5777;BME280;2914;42.668;23.346;2022-09-03T10:02:46;94693.73;;;22.24;80.57
5777;BME280;2914;42.668;23.346;2022-09-03T10:05:20;94698.24;;;22.43;79.80
5777;BME280;2914;42.668;23.346;2022-09-03T10:07:56;94696.37;;;22.50;79.60
5777;BME280;2914;42.668;23.346;2022-09-03T10:10:27;94697.20;;;22.51;76.77
5777;BME280;2914;42.668;23.346;2022-09-03T10:13:00;94694.70;;;22.56;78.39
5777;BME280;2914;42.668;23.346;2022-09-03T10:18:13;94690.40;;;22.71;78.20
5777;BME280;2914;42.668;23.346;2022-09-03T10:20:46;94693.06;;;22.48;78.48
5777;BME280;2914;42.668;23.346;2022-09-03T10:23:19;94688.58;;;22.35;79.28
5777;BME280;2914;42.668;23.346;2022-09-03T10:25:54;94690.30;;;22.39;78.37
5777;BME280;2914;42.668;23.346;2022-09-03T10:28:25;94685.34;;;22.29;78.02
5777;BME280;2914;42.668;23.346;2022-09-03T10:31:10;94682.08;;;22.20;78.89
5777;BME280;2914;42.668;23.346;2022-09-03T10:33:43;94684.23;;;22.21;79.83
5777;BME280;2914;42.668;23.346;2022-09-03T10:36:17;94686.59;;;22.27;78.60
5777;BME280;2914;42.668;23.346;2022-09-03T10:38:50;94681.43;;;22.25;79.79
5777;BME280;2914;42.668;23.346;2022-09-03T10:41:26;94683.89;;;22.33;80.00
5777;BME280;2914;42.668;23.346;2022-09-03T10:44:11;94682.72;;;22.52;79.73
5777;BME280;2914;42.668;23.346;2022-09-03T10:46:45;94674.13;;;22.52;80.12
5777;BME280;2914;42.668;23.346;2022-09-03T10:49:30;94686.10;;;22.57;77.78
5777;BME280;2914;42.668;23.346;2022-09-03T10:52:04;94679.67;;;22.64;77.54
5777;BME280;2914;42.668;23.346;2022-09-03T10:54:37;94688.11;;;22.68;77.63
5777;BME280;2914;42.668;23.346;2022-09-03T10:57:12;94688.62;;;22.74;75.82
5777;BME280;2914;42.668;23.346;2022-09-03T10:59:52;94684.90;;;22.75;75.88
5777;BME280;2914;42.668;23.346;2022-09-03T11:02:56;94681.05;;;22.74;77.00
5777;BME280;2914;42.668;23.346;2022-09-03T11:05:31;94669.92;;;22.70;75.33
5777;BME280;2914;42.668;23.346;2022-09-03T11:08:06;94683.77;;;22.90;74.69
5777;BME280;2914;42.668;23.346;2022-09-03T11:10:38;94684.98;;;22.94;75.02
5777;BME280;2914;42.668;23.346;2022-09-03T11:13:10;94677.67;;;22.92;74.18
5777;BME280;2914;42.668;23.346;2022-09-03T11:15:43;94683.05;;;22.92;75.02
5777;BME280;2914;42.668;23.346;2022-09-03T11:18:17;94689.46;;;22.91;74.30
5777;BME280;2914;42.668;23.346;2022-09-03T11:20:48;94682.05;;;23.02;75.42
5777;BME280;2914;42.668;23.346;2022-09-03T11:23:19;94685.14;;;23.06;73.51
5777;BME280;2914;42.668;23.346;2022-09-03T11:25:52;94686.57;;;23.08;75.08
5777;BME280;2914;42.668;23.346;2022-09-03T11:28:28;94691.19;;;23.17;73.17
5777;BME280;2914;42.668;23.346;2022-09-03T11:31:08;94686.84;;;23.16;71.79
5777;BME280;2914;42.668;23.346;2022-09-03T11:33:42;94684.47;;;23.10;73.31
5777;BME280;2914;42.668;23.346;2022-09-03T11:36:11;94677.97;;;23.09;74.70
5777;BME280;2914;42.668;23.346;2022-09-03T11:38:40;94686.17;;;23.04;74.55
5777;BME280;2914;42.668;23.346;2022-09-03T11:41:14;94680.87;;;23.14;74.81
5777;BME280;2914;42.668;23.346;2022-09-03T11:43:44;94677.20;;;23.17;73.04
5777;BME280;2914;42.668;23.346;2022-09-03T11:46:26;94680.48;;;23.26;72.49
5777;BME280;2914;42.668;23.346;2022-09-03T11:49:07;94673.70;;;23.17;73.35
5777;BME280;2914;42.668;23.346;2022-09-03T11:51:33;94678.59;;;23.27;71.64
5777;BME280;2914;42.668;23.346;2022-09-03T11:54:05;94685.95;;;23.29;71.53
5777;BME280;2914;42.668;23.346;2022-09-03T11:56:35;94686.45;;;23.28;72.94
5777;BME280;2914;42.668;23.346;2022-09-03T11:59:15;94680.39;;;23.24;71.69
5777;BME280;2914;42.668;23.346;2022-09-03T12:01:47;94686.21;;;23.20;71.13
5777;BME280;2914;42.668;23.346;2022-09-03T12:04:23;94683.20;;;23.19;72.28
5777;BME280;2914;42.668;23.346;2022-09-03T12:07:27;94679.08;;;23.17;71.93
5777;BME280;2914;42.668;23.346;2022-09-03T12:10:16;94670.20;;;23.16;73.15
5777;BME280;2914;42.668;23.346;2022-09-03T12:13:00;94671.41;;;23.20;72.36
5777;BME280;2914;42.668;23.346;2022-09-03T12:15:42;94670.88;;;23.21;70.48
5777;BME280;2914;42.668;23.346;2022-09-03T12:18:13;94668.64;;;23.11;69.93
5777;BME280;2914;42.668;23.346;2022-09-03T12:21:00;94667.28;;;23.18;70.69
5777;BME280;2914;42.668;23.346;2022-09-03T12:23:31;94668.10;;;23.18;71.46
5777;BME280;2914;42.668;23.346;2022-09-03T12:26:03;94662.72;;;23.18;72.20
5777;BME280;2914;42.668;23.346;2022-09-03T12:28:37;94660.25;;;23.33;71.81
5777;BME280;2914;42.668;23.346;2022-09-03T12:31:12;94659.77;;;23.27;70.95
5777;BME280;2914;42.668;23.346;2022-09-03T12:36:20;94661.42;;;23.28;72.94
5777;BME280;2914;42.668;23.346;2022-09-03T12:38:50;94660.12;;;23.21;73.58
5777;BME280;2914;42.668;23.346;2022-09-03T12:44:23;94660.44;;;23.31;73.64
5777;BME280;2914;42.668;23.346;2022-09-03T12:46:40;94657.83;;;23.25;73.83
5777;BME280;2914;42.668;23.346;2022-09-03T12:49:13;94658.73;;;23.28;74.13
5777;BME280;2914;42.668;23.346;2022-09-03T12:51:42;94657.47;;;23.14;71.66
5777;BME280;2914;42.668;23.346;2022-09-03T12:54:12;94653.84;;;23.11;71.64
5777;BME280;2914;42.668;23.346;2022-09-03T12:56:43;94643.16;;;23.20;71.31
5777;BME280;2914;42.668;23.346;2022-09-03T12:59:16;94638.69;;;23.24;70.35
5777;BME280;2914;42.668;23.346;2022-09-03T13:01:48;94649.00;;;23.27;69.74
5777;BME280;2914;42.668;23.346;2022-09-03T13:04:21;94647.52;;;23.31;71.52
5777;BME280;2914;42.668;23.346;2022-09-03T13:06:54;94647.34;;;23.26;70.89
5777;BME280;2914;42.668;23.346;2022-09-03T13:09:25;94643.56;;;23.33;70.41
5777;BME280;2914;42.668;23.346;2022-09-03T13:11:56;94639.45;;;23.31;70.76
5777;BME280;2914;42.668;23.346;2022-09-03T13:14:27;94607.80;;;23.10;71.65
5777;BME280;2914;42.668;23.346;2022-09-03T13:20:26;94636.67;;;23.28;70.76
5777;BME280;2914;42.668;23.346;2022-09-03T13:23:16;94637.43;;;23.35;71.10
5777;BME280;2914;42.668;23.346;2022-09-03T13:28:35;94622.44;;;23.37;71.30
5777;BME280;2914;42.668;23.346;2022-09-03T13:31:09;94626.89;;;23.34;69.72
5777;BME280;2914;42.668;23.346;2022-09-03T13:33:41;94625.59;;;23.27;70.50
5777;BME280;2914;42.668;23.346;2022-09-03T13:38:53;94625.18;;;23.30;70.92
5777;BME280;2914;42.668;23.346;2022-09-03T13:41:30;94622.27;;;23.32;70.81
5777;BME280;2914;42.668;23.346;2022-09-03T13:44:04;94625.98;;;23.31;69.65
5777;BME280;2914;42.668;23.346;2022-09-03T13:46:40;94627.87;;;23.40;68.74
5777;BME280;2914;42.668;23.346;2022-09-03T13:49:22;94621.23;;;23.33;68.31
5777;BME280;2914;42.668;23.346;2022-09-03T13:52:20;94619.77;;;23.21;69.14
5777;BME280;2914;42.668;23.346;2022-09-03T13:54:54;94625.95;;;23.21;69.13
5777;BME280;2914;42.668;23.346;2022-09-03T13:57:33;94618.73;;;23.31;67.91
5777;BME280;2914;42.668;23.346;2022-09-03T14:00:05;94624.73;;;23.33;67.41
5777;BME280;2914;42.668;23.346;2022-09-03T14:02:44;94627.42;;;23.33;67.55
5777;BME280;2914;42.668;23.346;2022-09-03T14:05:18;94615.77;;;23.30;68.05
5777;BME280;2914;42.668;23.346;2022-09-03T14:08:03;94626.89;;;23.34;68.59
5777;BME280;2914;42.668;23.346;2022-09-03T14:10:43;94621.23;;;23.33;68.35